sensor_id;sensor_type;location;lat;lon;timestamp;pressure;altitude;pressure_sealevel;temperature;humidity
70458;BME280;57919;56.194;95.716;2023-01-29T00:07:37;98786.78;;;-3.69;74.45
70458;BME280;57919;56.194;95.716;2023-01-29T00:17:38;98773.38;;;-3.65;73.45
70458;BME280;57919;56.194;95.716;2023-01-29T00:27:40;98740.25;;;-3.73;72.53
70458;BME280;57919;56.194;95.716;2023-01-29T00:37:42;98762.69;;;-3.62;72.66
70458;BME280;57919;56.194;95.716;2023-01-29T00:47:44;98738.59;;;-3.76;72.66
70458;BME280;57919;56.194;95.716;2023-01-29T00:57:46;98754.19;;;-3.70;72.15
70458;BME280;57919;56.194;95.716;2023-01-29T01:07:52;98706.66;;;-3.93;72.40
70458;BME280;57919;56.194;95.716;2023-01-29T01:17:57;98725.31;;;-3.74;72.38
70458;BME280;57919;56.194;95.716;2023-01-29T01:27:59;98717.09;;;-3.67;71.67
70458;BME280;57919;56.194;95.716;2023-01-29T01:38:01;98717.47;;;-3.54;71.26
70458;BME280;57919;56.194;95.716;2023-01-29T01:48:06;98692.38;;;-3.44;70.89
70458;BME280;57919;56.194;95.716;2023-01-29T01:58:18;98699.66;;;-3.07;68.27
70458;BME280;57919;56.194;95.716;2023-01-29T02:08:36;98691.03;;;-2.90;66.38
70458;BME280;57919;56.194;95.716;2023-01-29T02:18:59;98679.38;;;-2.86;64.14
70458;BME280;57919;56.194;95.716;2023-01-29T02:29:09;98686.19;;;-2.60;61.87
70458;BME280;57919;56.194;95.716;2023-01-29T02:40:04;98674.81;;;-2.82;61.86
70458;BME280;57919;56.194;95.716;2023-01-29T02:50:31;98634.91;;;-2.78;59.95
70458;BME280;57919;56.194;95.716;2023-01-29T03:00:41;98651.72;;;-2.01;59.63
70458;BME280;57919;56.194;95.716;2023-01-29T03:10:52;98633.28;;;-0.78;57.46
70458;BME280;57919;56.194;95.716;2023-01-29T03:21:02;98617.78;;;-0.70;53.78
70458;BME280;57919;56.194;95.716;2023-01-29T03:31:28;98588.47;;;-1.53;54.07
70458;BME280;57919;56.194;95.716;2023-01-29T03:52:11;98616.22;;;-1.60;53.31
70458;BME280;57919;56.194;95.716;2023-01-29T04:02:30;98598.56;;;-1.61;52.12
70458;BME280;57919;56.194;95.716;2023-01-29T04:12:51;98609.75;;;-1.55;51.28
70458;BME280;57919;56.194;95.716;2023-01-29T04:22:55;98604.00;;;-1.28;50.67
70458;BME280;57919;56.194;95.716;2023-01-29T04:44:07;98591.13;;;-1.02;49.96
70458;BME280;57919;56.194;95.716;2023-01-29T05:04:21;98559.47;;;-0.72;49.57
70458;BME280;57919;56.194;95.716;2023-01-29T05:14:23;98555.00;;;-0.71;48.13
70458;BME280;57919;56.194;95.716;2023-01-29T05:24:27;98540.06;;;-0.41;48.88
70458;BME280;57919;56.194;95.716;2023-01-29T05:34:29;98535.88;;;-0.45;47.43
70458;BME280;57919;56.194;95.716;2023-01-29T05:44:31;98563.53;;;-0.49;48.06
70458;BME280;57919;56.194;95.716;2023-01-29T05:54:33;98563.47;;;-0.47;47.89
70458;BME280;57919;56.194;95.716;2023-01-29T06:04:35;98543.47;;;-0.54;46.96
70458;BME280;57919;56.194;95.716;2023-01-29T06:14:37;98522.72;;;-0.63;46.57
70458;BME280;57919;56.194;95.716;2023-01-29T06:24:39;98518.38;;;-0.49;46.25
70458;BME280;57919;56.194;95.716;2023-01-29T06:34:41;98498.34;;;-0.39;45.89
70458;BME280;57919;56.194;95.716;2023-01-29T06:44:43;98516.75;;;-0.51;46.61
70458;BME280;57919;56.194;95.716;2023-01-29T06:54:45;98517.94;;;-0.57;45.89
70458;BME280;57919;56.194;95.716;2023-01-29T07:04:47;98522.38;;;-0.73;46.45
70458;BME280;57919;56.194;95.716;2023-01-29T07:14:49;98532.38;;;-0.78;46.81
70458;BME280;57919;56.194;95.716;2023-01-29T07:24:51;98542.31;;;-0.82;48.60
70458;BME280;57919;56.194;95.716;2023-01-29T07:34:53;98535.72;;;-1.08;47.01
70458;BME280;57919;56.194;95.716;2023-01-29T07:44:56;98541.34;;;-1.14;45.29
70458;BME280;57919;56.194;95.716;2023-01-29T07:54:59;98549.94;;;-1.26;45.72
70458;BME280;57919;56.194;95.716;2023-01-29T08:05:02;98517.25;;;-1.44;45.29
70458;BME280;57919;56.194;95.716;2023-01-29T08:15:04;98543.06;;;-1.30;45.63
70458;BME280;57919;56.194;95.716;2023-01-29T08:25:07;98528.72;;;-1.43;45.95
70458;BME280;57919;56.194;95.716;2023-01-29T08:35:09;98550.78;;;-1.43;46.45
70458;BME280;57919;56.194;95.716;2023-01-29T08:45:11;98555.84;;;-1.38;45.37
70458;BME280;57919;56.194;95.716;2023-01-29T08:55:13;98542.75;;;-1.58;45.51
70458;BME280;57919;56.194;95.716;2023-01-29T09:05:16;98542.81;;;-1.60;46.46
70458;BME280;57919;56.194;95.716;2023-01-29T09:15:17;98563.41;;;-1.65;46.20
70458;BME280;57919;56.194;95.716;2023-01-29T09:25:19;98539.03;;;-1.90;46.25
70458;BME280;57919;56.194;95.716;2023-01-29T09:35:22;98556.09;;;-1.96;46.14
70458;BME280;57919;56.194;95.716;2023-01-29T09:45:26;98537.88;;;-2.21;46.70
70458;BME280;57919;56.194;95.716;2023-01-29T09:55:41;98550.41;;;-2.24;47.03
70458;BME280;57919;56.194;95.716;2023-01-29T10:16:26;98540.81;;;-2.46;47.53
70458;BME280;57919;56.194;95.716;2023-01-29T10:26:33;98545.38;;;-2.49;48.88
70458;BME280;57919;56.194;95.716;2023-01-29T10:36:43;98549.13;;;-2.53;48.49
70458;BME280;57919;56.194;95.716;2023-01-29T10:47:52;98554.91;;;-2.64;49.28
70458;BME280;57919;56.194;95.716;2023-01-29T11:08:12;98540.66;;;-2.80;49.37
70458;BME280;57919;56.194;95.716;2023-01-29T11:18:16;98545.53;;;-2.71;49.69
70458;BME280;57919;56.194;95.716;2023-01-29T11:28:40;98540.53;;;-2.58;49.55
70458;BME280;57919;56.194;95.716;2023-01-29T11:38:42;98518.47;;;-2.59;50.04
70458;BME280;57919;56.194;95.716;2023-01-29T11:48:49;98530.38;;;-2.49;50.05
70458;BME280;57919;56.194;95.716;2023-01-29T11:58:57;98511.19;;;-2.54;50.70
70458;BME280;57919;56.194;95.716;2023-01-29T12:09:02;98518.28;;;-2.54;51.14
70458;BME280;57919;56.194;95.716;2023-01-29T12:19:14;98531.94;;;-2.45;51.10
70458;BME280;57919;56.194;95.716;2023-01-29T12:29:30;98548.53;;;-2.41;51.75
70458;BME280;57919;56.194;95.716;2023-01-29T12:39:38;98561.00;;;-2.43;52.29
70458;BME280;57919;56.194;95.716;2023-01-29T12:49:41;98559.84;;;-2.38;52.16
70458;BME280;57919;56.194;95.716;2023-01-29T13:00:04;98540.88;;;-2.47;52.36
70458;BME280;57919;56.194;95.716;2023-01-29T13:10:17;98515.75;;;-2.57;52.83
70458;BME280;57919;56.194;95.716;2023-01-29T13:20:39;98535.72;;;-2.69;53.35
70458;BME280;57919;56.194;95.716;2023-01-29T13:30:42;98568.03;;;-2.81;53.92
70458;BME280;57919;56.194;95.716;2023-01-29T13:40:49;98569.09;;;-2.85;53.12
70458;BME280;57919;56.194;95.716;2023-01-29T13:50:55;98548.28;;;-3.13;53.11
70458;BME280;57919;56.194;95.716;2023-01-29T14:01:03;98568.53;;;-3.33;55.30
70458;BME280;57919;56.194;95.716;2023-01-29T14:21:23;98614.28;;;-3.73;58.20
70458;BME280;57919;56.194;95.716;2023-01-29T14:41:37;98650.56;;;-4.00;58.81
70458;BME280;57919;56.194;95.716;2023-01-29T14:51:42;98660.16;;;-4.44;57.99
70458;BME280;57919;56.194;95.716;2023-01-29T15:01:50;98665.06;;;-4.81;58.83
70458;BME280;57919;56.194;95.716;2023-01-29T15:22:23;98708.00;;;-5.03;62.12
70458;BME280;57919;56.194;95.716;2023-01-29T15:32:38;98703.59;;;-5.29;61.79
70458;BME280;57919;56.194;95.716;2023-01-29T15:42:45;98706.16;;;-5.54;61.57
70458;BME280;57919;56.194;95.716;2023-01-29T15:53:02;98727.72;;;-5.41;61.21
70458;BME280;57919;56.194;95.716;2023-01-29T16:03:14;98744.19;;;-5.34;60.46
70458;BME280;57919;56.194;95.716;2023-01-29T16:13:22;98764.13;;;-5.26;60.27
70458;BME280;57919;56.194;95.716;2023-01-29T16:23:33;98769.44;;;-5.27;60.70
70458;BME280;57919;56.194;95.716;2023-01-29T16:33:37;98763.66;;;-5.38;60.06
70458;BME280;57919;56.194;95.716;2023-01-29T16:43:46;98779.78;;;-5.49;60.16
70458;BME280;57919;56.194;95.716;2023-01-29T17:04:16;98789.03;;;-5.64;60.59
70458;BME280;57919;56.194;95.716;2023-01-29T17:14:19;98800.09;;;-5.82;61.63
70458;BME280;57919;56.194;95.716;2023-01-29T17:24:21;98802.41;;;-5.99;61.39
70458;BME280;57919;56.194;95.716;2023-01-29T17:34:23;98801.53;;;-6.00;61.32
70458;BME280;57919;56.194;95.716;2023-01-29T17:44:25;98817.41;;;-6.03;61.04
70458;BME280;57919;56.194;95.716;2023-01-29T17:54:27;98820.25;;;-6.10;60.86
70458;BME280;57919;56.194;95.716;2023-01-29T18:04:29;98830.31;;;-6.25;60.76
70458;BME280;57919;56.194;95.716;2023-01-29T18:14:31;98820.25;;;-6.41;61.27
70458;BME280;57919;56.194;95.716;2023-01-29T18:24:33;98848.16;;;-6.36;61.67
70458;BME280;57919;56.194;95.716;2023-01-29T18:34:37;98847.16;;;-6.32;61.53
70458;BME280;57919;56.194;95.716;2023-01-29T18:44:38;98854.69;;;-6.50;61.29
70458;BME280;57919;56.194;95.716;2023-01-29T18:54:41;98865.91;;;-6.44;61.11
70458;BME280;57919;56.194;95.716;2023-01-29T19:04:44;98884.31;;;-6.44;60.56
70458;BME280;57919;56.194;95.716;2023-01-29T19:14:46;98851.72;;;-6.72;61.19
70458;BME280;57919;56.194;95.716;2023-01-29T19:24:48;98899.66;;;-6.61;61.81
70458;BME280;57919;56.194;95.716;2023-01-29T19:34:50;98919.34;;;-6.77;62.88
70458;BME280;57919;56.194;95.716;2023-01-29T19:44:51;98931.84;;;-6.87;63.42
70458;BME280;57919;56.194;95.716;2023-01-29T19:54:53;98944.44;;;-7.01;63.79
70458;BME280;57919;56.194;95.716;2023-01-29T20:04:55;98945.63;;;-7.16;63.72
70458;BME280;57919;56.194;95.716;2023-01-29T20:14:59;98907.63;;;-7.40;63.44
70458;BME280;57919;56.194;95.716;2023-01-29T20:25:00;98954.91;;;-7.40;64.54
70458;BME280;57919;56.194;95.716;2023-01-29T20:35:03;98934.53;;;-7.72;64.26
70458;BME280;57919;56.194;95.716;2023-01-29T20:45:05;98969.38;;;-7.64;65.10
70458;BME280;57919;56.194;95.716;2023-01-29T20:55:09;98978.97;;;-7.61;65.56
70458;BME280;57919;56.194;95.716;2023-01-29T21:05:12;98978.91;;;-7.58;65.75
70458;BME280;57919;56.194;95.716;2023-01-29T21:15:14;98983.09;;;-7.50;65.00
70458;BME280;57919;56.194;95.716;2023-01-29T21:25:16;98989.78;;;-7.78;64.74
70458;BME280;57919;56.194;95.716;2023-01-29T21:35:20;99002.44;;;-8.00;65.23
70458;BME280;57919;56.194;95.716;2023-01-29T21:45:22;98997.81;;;-8.35;66.22
70458;BME280;57919;56.194;95.716;2023-01-29T21:55:24;99033.63;;;-8.34;66.67
70458;BME280;57919;56.194;95.716;2023-01-29T22:05:26;99016.25;;;-8.39;66.31
70458;BME280;57919;56.194;95.716;2023-01-29T22:15:29;99061.69;;;-8.39;65.90
70458;BME280;57919;56.194;95.716;2023-01-29T22:25:31;99083.00;;;-8.63;65.60
70458;BME280;57919;56.194;95.716;2023-01-29T22:35:34;99098.94;;;-8.77;65.69
70458;BME280;57919;56.194;95.716;2023-01-29T22:45:38;99053.22;;;-9.22;65.17
70458;BME280;57919;56.194;95.716;2023-01-29T22:55:39;99117.69;;;-9.10;64.82
70458;BME280;57919;56.194;95.716;2023-01-29T23:05:42;99106.63;;;-9.37;64.08
70458;BME280;57919;56.194;95.716;2023-01-29T23:15:44;99142.38;;;-9.34;64.48
70458;BME280;57919;56.194;95.716;2023-01-29T23:25:46;99158.22;;;-9.48;64.54
70458;BME280;57919;56.194;95.716;2023-01-29T23:36:07;99151.28;;;-9.52;65.00
70458;BME280;57919;56.194;95.716;2023-01-29T23:46:09;99158.19;;;-9.43;65.45
70458;BME280;57919;56.194;95.716;2023-01-29T23:56:10;99178.84;;;-9.15;65.42
